createdAt,value
2024-01-26T00:00:10.531Z,3.13
2024-01-26T00:02:37.721Z,3.45
2024-01-26T00:05:05.203Z,3.00
2024-01-26T00:07:32.708Z,2.80
2024-01-26T00:10:00.216Z,2.67
2024-01-26T00:12:27.394Z,3.13
2024-01-26T00:14:54.419Z,2.60
2024-01-26T00:17:21.479Z,2.70
2024-01-26T00:19:48.668Z,2.55
2024-01-26T00:22:15.653Z,2.47
2024-01-26T00:24:42.681Z,2.50
2024-01-26T00:27:09.718Z,2.55
2024-01-26T00:29:36.709Z,2.10
2024-01-26T00:32:04.213Z,2.00
2024-01-26T00:34:31.297Z,1.88
2024-01-26T00:37:03.127Z,2.00
2024-01-26T00:39:30.335Z,2.13
2024-01-26T00:41:57.464Z,1.70
2024-01-26T00:44:24.465Z,1.80
2024-01-26T00:46:51.444Z,1.90
2024-01-26T00:49:18.493Z,1.80
2024-01-26T00:51:45.612Z,1.73
2024-01-26T00:54:12.731Z,1.60
2024-01-26T00:56:39.884Z,1.88
2024-01-26T00:59:06.808Z,2.15
2024-01-26T01:01:34.002Z,1.60
2024-01-26T01:04:01.198Z,1.55
2024-01-26T01:06:28.226Z,1.40
2024-01-26T01:08:55.191Z,1.63
2024-01-26T01:11:22.213Z,1.75
2024-01-26T01:13:49.146Z,1.70
2024-01-26T01:16:16.421Z,1.50
2024-01-26T01:18:43.457Z,1.52
2024-01-26T01:21:10.464Z,1.50
2024-01-26T01:23:37.529Z,1.20
2024-01-26T01:26:04.765Z,1.38
2024-01-26T01:28:31.646Z,1.77
2024-01-26T01:30:58.576Z,1.30
2024-01-26T01:33:25.597Z,1.33
2024-01-26T01:35:54.017Z,1.48
2024-01-26T01:38:20.976Z,1.63
2024-01-26T01:40:47.911Z,1.50
2024-01-26T01:43:21.312Z,1.63
2024-01-26T01:45:48.317Z,1.70
2024-01-26T01:48:15.411Z,1.60
2024-01-26T01:50:43.802Z,1.73
2024-01-26T01:53:13.957Z,2.10
2024-01-26T01:55:43.368Z,1.70
2024-01-26T01:58:10.859Z,1.63
2024-01-26T02:00:38.901Z,1.52
2024-01-26T02:03:06.149Z,1.42
2024-01-26T02:05:33.361Z,1.30
2024-01-26T02:08:00.439Z,1.30
2024-01-26T02:10:27.477Z,1.52
2024-01-26T02:12:54.388Z,1.30
2024-01-26T02:15:21.284Z,1.50
2024-01-26T02:17:48.212Z,1.80
2024-01-26T02:20:15.123Z,1.92
2024-01-26T02:22:42.019Z,2.13
2024-01-26T02:25:09.294Z,1.40
2024-01-26T02:27:36.693Z,1.27
2024-01-26T02:30:06.281Z,1.33
2024-01-26T02:32:33.571Z,1.40
2024-01-26T02:35:00.762Z,1.20
2024-01-26T02:37:27.688Z,1.27
2024-01-26T02:39:54.565Z,1.20
2024-01-26T02:42:21.451Z,1.30
2024-01-26T02:44:48.420Z,1.40
2024-01-26T02:47:15.415Z,1.50
2024-01-26T02:49:45.945Z,1.50
2024-01-26T02:52:13.024Z,1.85
2024-01-26T02:54:39.903Z,1.40
2024-01-26T02:57:07.043Z,2.20
2024-01-26T02:59:34.298Z,1.77
2024-01-26T03:02:01.373Z,1.60
2024-01-26T03:04:28.444Z,1.98
2024-01-26T03:06:57.369Z,1.58
2024-01-26T03:09:24.598Z,2.15
2024-01-26T03:11:51.683Z,1.77
2024-01-26T03:14:19.995Z,1.88
2024-01-26T03:16:47.223Z,2.17
2024-01-26T03:19:14.766Z,7.60
2024-01-26T03:21:45.416Z,3.15
2024-01-26T03:24:12.921Z,1.70
2024-01-26T03:26:40.369Z,1.95
2024-01-26T03:29:08.178Z,1.42
2024-01-26T03:31:35.543Z,2.67
2024-01-26T03:34:03.110Z,1.40
2024-01-26T03:36:30.410Z,1.90
2024-01-26T03:38:58.061Z,1.63
2024-01-26T03:41:25.257Z,1.60
2024-01-26T03:43:53.778Z,1.90
2024-01-26T03:46:22.036Z,2.38
2024-01-26T03:48:50.287Z,2.03
2024-01-26T03:51:17.748Z,1.83
2024-01-26T03:53:45.044Z,1.67
2024-01-26T03:56:12.145Z,1.42
2024-01-26T03:58:39.257Z,2.50
2024-01-26T04:01:06.739Z,2.13
2024-01-26T04:03:34.102Z,2.47
2024-01-26T04:06:04.863Z,1.90
2024-01-26T04:08:32.359Z,1.98
2024-01-26T04:10:59.697Z,2.05
2024-01-26T04:13:26.749Z,1.83
2024-01-26T04:15:53.746Z,1.95
2024-01-26T04:18:21.045Z,2.10
2024-01-26T04:20:49.971Z,2.22
2024-01-26T04:23:17.549Z,1.98
2024-01-26T04:25:45.136Z,2.28
2024-01-26T04:28:12.280Z,1.83
2024-01-26T04:30:41.331Z,2.10
2024-01-26T04:33:08.922Z,2.10
2024-01-26T04:35:36.829Z,2.13
2024-01-26T04:38:06.331Z,2.22
2024-01-26T04:40:33.341Z,2.60
2024-01-26T04:43:00.719Z,2.40
2024-01-26T04:45:27.689Z,2.20
2024-01-26T04:47:54.848Z,2.00
2024-01-26T04:50:21.837Z,2.70
2024-01-26T04:52:50.601Z,2.80
2024-01-26T04:55:17.765Z,2.25
2024-01-26T04:57:44.750Z,2.10
2024-01-26T05:00:12.210Z,1.92
2024-01-26T05:02:39.207Z,2.45
2024-01-26T05:05:06.428Z,2.70
2024-01-26T05:07:33.360Z,2.67
2024-01-26T05:10:00.336Z,2.80
2024-01-26T05:12:27.225Z,2.40
2024-01-26T05:14:54.199Z,2.13
2024-01-26T05:17:21.107Z,2.20
2024-01-26T05:19:48.092Z,1.75
2024-01-26T05:22:15.027Z,2.10
2024-01-26T05:24:41.946Z,2.05
2024-01-26T05:27:08.961Z,2.03
2024-01-26T05:29:37.071Z,2.20
2024-01-26T05:32:05.551Z,2.10
2024-01-26T05:34:32.575Z,2.17
2024-01-26T05:36:59.542Z,2.28
2024-01-26T05:39:30.281Z,2.10
2024-01-26T05:41:57.266Z,2.60
2024-01-26T05:44:24.158Z,2.47
2024-01-26T05:46:51.104Z,2.60
2024-01-26T05:49:18.152Z,2.50
2024-01-26T05:51:45.967Z,2.40
2024-01-26T05:54:14.176Z,2.50
2024-01-26T05:56:44.455Z,2.40
2024-01-26T05:59:11.554Z,2.58
2024-01-26T06:01:38.785Z,2.67
2024-01-26T06:04:06.675Z,2.53
2024-01-26T06:06:34.142Z,2.20
2024-01-26T06:09:01.272Z,2.90
2024-01-26T06:11:28.308Z,2.67
2024-01-26T06:13:55.471Z,3.03
2024-01-26T06:16:22.353Z,2.53
2024-01-26T06:18:49.639Z,2.67
2024-01-26T06:21:16.667Z,4.00
2024-01-26T06:23:43.730Z,3.20
2024-01-26T06:26:10.959Z,3.88
2024-01-26T06:28:37.853Z,3.97
2024-01-26T06:31:04.864Z,3.92
2024-01-26T06:33:32.020Z,4.18
2024-01-26T06:35:59.178Z,3.90
2024-01-26T06:38:26.120Z,4.10
2024-01-26T06:40:53.061Z,4.50
2024-01-26T06:43:21.286Z,3.90
2024-01-26T06:45:48.219Z,4.25
2024-01-26T06:48:15.393Z,3.78
2024-01-26T06:50:42.500Z,4.03
2024-01-26T06:53:10.581Z,4.00
2024-01-26T06:55:37.682Z,4.20
2024-01-26T06:58:04.724Z,4.72
2024-01-26T07:00:31.850Z,5.82
2024-01-26T07:02:58.832Z,6.75
2024-01-26T07:05:25.880Z,6.93
2024-01-26T07:07:53.025Z,4.45
2024-01-26T07:10:20.063Z,4.85
2024-01-26T07:12:46.969Z,5.13
2024-01-26T07:15:14.064Z,4.78
2024-01-26T07:17:41.139Z,4.20
2024-01-26T07:20:08.934Z,3.83
2024-01-26T07:22:35.912Z,3.97
2024-01-26T07:25:10.802Z,6.40
2024-01-26T07:27:37.783Z,4.00
2024-01-26T07:30:09.221Z,3.92
2024-01-26T07:32:36.367Z,3.70
2024-01-26T07:35:04.994Z,3.95
2024-01-26T07:37:31.994Z,3.10
2024-01-26T07:39:58.934Z,3.10
2024-01-26T07:42:26.043Z,3.60
2024-01-26T07:44:53.056Z,3.15
2024-01-26T07:47:21.980Z,2.97
2024-01-26T07:49:50.167Z,3.20
2024-01-26T07:52:17.356Z,3.50
2024-01-26T07:54:45.116Z,3.47
2024-01-26T07:57:12.196Z,3.50
2024-01-26T07:59:39.213Z,3.50
2024-01-26T08:02:06.275Z,3.60
2024-01-26T08:04:33.289Z,3.72
2024-01-26T08:07:00.749Z,3.95
2024-01-26T08:09:27.869Z,4.35
2024-01-26T08:11:55.257Z,4.97
2024-01-26T08:14:22.633Z,3.42
2024-01-26T08:16:49.713Z,3.95
2024-01-26T08:19:18.223Z,3.95
2024-01-26T08:21:45.378Z,3.53
2024-01-26T08:24:13.363Z,3.58
2024-01-26T08:26:40.841Z,3.80
2024-01-26T08:29:10.088Z,4.07
2024-01-26T08:31:37.933Z,5.47
2024-01-26T08:34:05.124Z,6.00
2024-01-26T08:36:32.284Z,4.35
2024-01-26T08:38:59.276Z,4.60
2024-01-26T08:41:26.225Z,4.47
2024-01-26T08:43:53.168Z,3.95
2024-01-26T08:46:20.253Z,3.67
2024-01-26T08:48:47.313Z,4.20
2024-01-26T08:51:14.406Z,4.15
2024-01-26T08:53:41.361Z,5.03
2024-01-26T08:56:08.472Z,4.00
2024-01-26T08:58:35.381Z,3.97
2024-01-26T09:01:02.494Z,6.10
2024-01-26T09:03:29.596Z,4.43
2024-01-26T09:05:56.618Z,4.95
2024-01-26T09:08:23.615Z,5.13
2024-01-26T09:10:50.548Z,4.75
2024-01-26T09:13:17.481Z,5.80
2024-01-26T09:15:44.474Z,6.03
2024-01-26T09:18:11.927Z,5.40
2024-01-26T09:20:39.362Z,5.65
2024-01-26T09:23:06.414Z,5.78
2024-01-26T09:25:33.345Z,6.07
2024-01-26T09:28:00.211Z,5.25
2024-01-26T09:30:27.293Z,6.65
2024-01-26T09:32:54.583Z,5.38
2024-01-26T09:35:21.628Z,5.43
2024-01-26T09:37:48.552Z,6.40
2024-01-26T09:40:15.668Z,5.80
2024-01-26T09:42:43.058Z,6.38
2024-01-26T09:45:13.139Z,5.97
2024-01-26T09:47:42.717Z,6.00
2024-01-26T09:50:14.266Z,6.30
2024-01-26T09:52:41.660Z,5.07
2024-01-26T09:55:10.743Z,4.10
2024-01-26T09:57:38.461Z,11.80
2024-01-26T10:00:09.413Z,5.43
2024-01-26T10:02:36.466Z,4.50
2024-01-26T10:05:03.626Z,4.63
2024-01-26T10:07:30.775Z,7.05
2024-01-26T10:09:57.725Z,5.63
2024-01-26T10:12:25.203Z,7.38
2024-01-26T10:15:06.629Z,12.45
2024-01-26T10:17:33.762Z,6.07
2024-01-26T10:20:11.191Z,7.20
2024-01-26T10:22:39.100Z,23.80
2024-01-26T10:25:06.712Z,53.92
2024-01-26T10:27:38.069Z,11.50
2024-01-26T10:30:06.932Z,6.50
2024-01-26T10:32:35.309Z,6.80
2024-01-26T10:35:05.754Z,6.70
2024-01-26T10:37:36.064Z,7.10
2024-01-26T10:40:05.676Z,8.73
2024-01-26T10:42:33.845Z,6.97
2024-01-26T10:45:03.029Z,7.43
2024-01-26T10:47:31.869Z,11.88
2024-01-26T10:49:59.454Z,10.13
2024-01-26T10:52:28.999Z,32.42
2024-01-26T10:54:56.129Z,8.65
2024-01-26T10:57:23.392Z,6.63
2024-01-26T10:59:51.028Z,9.05
2024-01-26T11:02:36.204Z,10.75
2024-01-26T11:05:04.522Z,6.38
2024-01-26T11:07:44.153Z,5.68
2024-01-26T11:10:28.663Z,6.93
2024-01-26T11:13:07.336Z,7.03
2024-01-26T11:15:37.095Z,6.68
2024-01-26T11:18:05.036Z,7.38
2024-01-26T11:20:36.188Z,7.68
2024-01-26T11:23:15.666Z,6.90
2024-01-26T11:25:52.532Z,6.57
2024-01-26T11:28:29.606Z,6.55
2024-01-26T11:31:01.510Z,6.38
2024-01-26T11:33:38.658Z,6.38
2024-01-26T11:36:10.613Z,6.95
2024-01-26T11:38:38.716Z,6.20
2024-01-26T11:41:07.720Z,6.30
2024-01-26T11:43:47.751Z,6.50
2024-01-26T11:46:18.595Z,6.78
2024-01-26T11:48:45.701Z,6.10
2024-01-26T11:51:13.095Z,6.47
2024-01-26T11:53:40.609Z,6.35
2024-01-26T11:56:08.240Z,7.05
2024-01-26T11:58:35.836Z,6.47
2024-01-26T12:01:03.644Z,7.15
2024-01-26T12:03:31.288Z,6.13
2024-01-26T12:05:59.588Z,6.82
2024-01-26T12:08:26.895Z,7.10
2024-01-26T12:10:55.255Z,7.53
2024-01-26T12:13:22.486Z,7.20
2024-01-26T12:15:50.827Z,8.27
2024-01-26T12:18:18.038Z,7.03
2024-01-26T12:20:48.534Z,8.73
2024-01-26T12:23:20.510Z,8.88
2024-01-26T12:25:53.990Z,9.07
2024-01-26T12:28:22.313Z,9.25
2024-01-26T12:30:50.082Z,9.18
2024-01-26T12:33:17.833Z,8.82
2024-01-26T12:35:48.850Z,8.70
2024-01-26T12:38:16.725Z,8.48
2024-01-26T12:40:44.152Z,8.63
2024-01-26T12:43:13.159Z,8.40
2024-01-26T12:45:40.342Z,8.73
2024-01-26T12:48:07.810Z,8.20
2024-01-26T12:50:34.999Z,8.93
2024-01-26T12:53:02.157Z,9.02
2024-01-26T12:55:29.080Z,8.68
2024-01-26T12:57:56.714Z,9.10
2024-01-26T13:00:24.132Z,9.27
2024-01-26T13:02:52.645Z,9.60
2024-01-26T13:05:21.257Z,9.05
2024-01-26T13:07:48.295Z,8.95
2024-01-26T13:10:15.345Z,8.25
2024-01-26T13:12:43.631Z,9.73
2024-01-26T13:15:15.487Z,9.60
2024-01-26T13:17:43.588Z,10.75
2024-01-26T13:20:19.209Z,11.85
2024-01-26T13:22:51.027Z,11.60
2024-01-26T13:25:18.627Z,10.60
2024-01-26T13:27:46.109Z,8.82
2024-01-26T13:30:14.231Z,8.43
2024-01-26T13:32:44.753Z,9.32
2024-01-26T13:35:12.146Z,9.65
2024-01-26T13:37:39.172Z,9.02
2024-01-26T13:40:07.207Z,9.25
2024-01-26T13:42:35.240Z,9.88
2024-01-26T13:45:03.907Z,9.68
2024-01-26T13:47:30.956Z,11.93
2024-01-26T13:49:58.149Z,10.48
2024-01-26T13:52:25.201Z,12.35
2024-01-26T13:54:52.139Z,10.65
2024-01-26T13:57:19.293Z,11.10
2024-01-26T13:59:46.518Z,11.10
2024-01-26T14:02:13.666Z,10.27
2024-01-26T14:04:40.637Z,10.20
2024-01-26T14:07:07.864Z,10.45
2024-01-26T14:09:35.828Z,9.90
2024-01-26T14:12:04.778Z,11.23
2024-01-26T14:14:32.242Z,12.85
2024-01-26T14:16:59.197Z,12.50
2024-01-26T14:19:26.287Z,11.48
2024-01-26T14:21:55.398Z,11.73
2024-01-26T14:24:22.766Z,10.50
2024-01-26T14:26:49.845Z,11.98
2024-01-26T14:29:18.982Z,11.05
2024-01-26T14:31:48.178Z,11.93
2024-01-26T14:34:15.175Z,12.30
2024-01-26T14:36:43.448Z,13.60
2024-01-26T14:39:10.405Z,13.15
2024-01-26T14:41:37.501Z,13.13
2024-01-26T14:44:05.761Z,13.82
2024-01-26T14:46:34.867Z,15.80
2024-01-26T14:49:04.829Z,17.58
2024-01-26T14:51:31.850Z,14.60
2024-01-26T14:53:59.993Z,12.50
2024-01-26T14:56:26.918Z,12.48
2024-01-26T14:58:53.852Z,12.90
2024-01-26T15:01:22.491Z,14.23
2024-01-26T15:03:49.589Z,13.68
2024-01-26T15:06:17.700Z,14.18
2024-01-26T15:08:44.869Z,14.85
2024-01-26T15:11:12.093Z,14.15
2024-01-26T15:13:40.072Z,13.93
2024-01-26T15:16:08.437Z,13.13
2024-01-26T15:18:36.046Z,13.90
2024-01-26T15:21:03.198Z,14.45
2024-01-26T15:23:30.223Z,14.60
2024-01-26T15:25:57.214Z,12.90
2024-01-26T15:28:24.269Z,12.07
2024-01-26T15:30:51.257Z,12.57
2024-01-26T15:33:18.268Z,13.48
2024-01-26T15:35:45.338Z,12.85
2024-01-26T15:38:12.318Z,13.30
2024-01-26T15:40:40.213Z,13.85
2024-01-26T15:43:07.150Z,14.77
2024-01-26T15:45:35.044Z,13.30
2024-01-26T15:48:02.192Z,11.70
2024-01-26T15:50:29.257Z,11.30
2024-01-26T15:52:56.188Z,10.95
2024-01-26T15:55:23.113Z,12.85
2024-01-26T15:57:50.160Z,11.57
2024-01-26T16:00:17.746Z,10.75
2024-01-26T16:02:45.093Z,10.45
2024-01-26T16:05:12.726Z,11.43
2024-01-26T16:07:39.804Z,11.43
2024-01-26T16:10:08.559Z,12.35
2024-01-26T16:12:37.600Z,11.68
2024-01-26T16:15:08.050Z,12.10
2024-01-26T16:17:36.172Z,12.98
2024-01-26T16:20:04.019Z,12.68
2024-01-26T16:22:31.010Z,27.13
2024-01-26T16:24:57.891Z,15.02
2024-01-26T16:27:24.881Z,16.13
2024-01-26T16:29:51.911Z,15.57
2024-01-26T16:32:18.942Z,14.60
2024-01-26T16:34:45.983Z,13.68
2024-01-26T16:37:13.451Z,14.02
2024-01-26T16:39:40.450Z,15.00
2024-01-26T16:42:07.541Z,13.38
2024-01-26T16:44:34.528Z,15.02
2024-01-26T16:47:01.461Z,14.30
2024-01-26T16:49:28.775Z,15.02
2024-01-26T16:52:02.485Z,14.55
2024-01-26T16:54:41.222Z,13.70
2024-01-26T16:57:09.606Z,14.93
2024-01-26T16:59:36.832Z,15.23
2024-01-26T17:02:04.136Z,14.93
2024-01-26T17:04:31.366Z,14.82
2024-01-26T17:07:01.023Z,31.25
2024-01-26T17:09:29.456Z,114.43
2024-01-26T17:11:56.412Z,22.20
2024-01-26T17:14:23.342Z,25.48
2024-01-26T17:16:53.484Z,19.33
2024-01-26T17:19:20.528Z,22.65
2024-01-26T17:21:48.107Z,28.10
2024-01-26T17:24:15.207Z,22.90
2024-01-26T17:26:43.627Z,22.02
2024-01-26T17:29:10.831Z,25.08
2024-01-26T17:31:37.855Z,17.25
2024-01-26T17:34:04.862Z,15.00
2024-01-26T17:36:31.927Z,14.63
2024-01-26T17:38:58.944Z,14.98
2024-01-26T17:41:25.837Z,14.23
2024-01-26T17:43:52.744Z,14.23
2024-01-26T17:46:20.164Z,14.18
2024-01-26T17:48:47.282Z,16.42
2024-01-26T17:51:14.662Z,20.75
2024-01-26T17:53:41.880Z,15.30
2024-01-26T17:56:09.161Z,15.30
2024-01-26T17:58:36.635Z,46.90
2024-01-26T18:01:04.010Z,15.55
2024-01-26T18:03:31.028Z,14.13
2024-01-26T18:06:00.402Z,14.93
2024-01-26T18:08:27.900Z,14.43
2024-01-26T18:10:55.008Z,13.77
2024-01-26T18:13:22.406Z,14.23
2024-01-26T18:15:49.420Z,14.02
2024-01-26T18:18:18.019Z,13.82
2024-01-26T18:20:45.284Z,14.40
2024-01-26T18:23:12.286Z,13.05
2024-01-26T18:25:39.717Z,13.27
2024-01-26T18:28:07.574Z,14.57
2024-01-26T18:30:34.668Z,14.02
2024-01-26T18:33:06.659Z,12.82
2024-01-26T18:35:35.821Z,13.30
2024-01-26T18:38:03.370Z,12.93
2024-01-26T18:40:30.397Z,12.40
2024-01-26T18:42:59.000Z,13.27
2024-01-26T18:45:26.588Z,12.20
2024-01-26T18:47:54.393Z,12.23
2024-01-26T18:50:22.362Z,12.75
2024-01-26T18:52:50.341Z,15.05
2024-01-26T18:55:17.918Z,12.25
2024-01-26T18:57:45.196Z,11.82
2024-01-26T19:00:13.809Z,12.20
2024-01-26T19:02:41.301Z,11.82
2024-01-26T19:05:13.457Z,12.13
2024-01-26T19:07:43.653Z,14.38
2024-01-26T19:10:14.958Z,14.98
2024-01-26T19:12:43.197Z,12.40
2024-01-26T19:15:11.014Z,17.58
2024-01-26T19:17:38.143Z,13.40
2024-01-26T19:20:06.832Z,12.05
2024-01-26T19:22:35.849Z,13.40
2024-01-26T19:25:06.473Z,32.42
2024-01-26T19:27:33.905Z,17.67
2024-01-26T19:30:01.560Z,16.75
2024-01-26T19:32:28.686Z,13.48
2024-01-26T19:34:55.780Z,12.68
2024-01-26T19:37:23.030Z,22.48
2024-01-26T19:39:50.588Z,24.05
2024-01-26T19:42:18.639Z,24.73
2024-01-26T19:44:46.462Z,17.98
2024-01-26T19:47:14.094Z,25.75
2024-01-26T19:49:44.189Z,16.48
2024-01-26T19:52:13.211Z,36.63
2024-01-26T19:54:43.527Z,18.70
2024-01-26T19:57:10.644Z,15.82
2024-01-26T19:59:39.274Z,16.63
2024-01-26T20:02:06.327Z,18.38
2024-01-26T20:04:34.587Z,19.38
2024-01-26T20:07:04.378Z,20.55
2024-01-26T20:09:34.048Z,20.33
2024-01-26T20:12:02.881Z,12.90
2024-01-26T20:14:29.900Z,15.23
2024-01-26T20:16:57.025Z,15.32
2024-01-26T20:19:27.034Z,12.35
2024-01-26T20:21:56.063Z,10.80
2024-01-26T20:24:24.498Z,11.27
2024-01-26T20:26:51.609Z,9.65
2024-01-26T20:29:18.684Z,9.02
2024-01-26T20:31:46.106Z,8.85
2024-01-26T20:34:14.344Z,8.40
2024-01-26T20:36:42.772Z,8.68
2024-01-26T20:39:09.832Z,7.32
2024-01-26T20:41:36.797Z,6.18
2024-01-26T20:44:07.191Z,5.05
2024-01-26T20:46:34.658Z,4.10
2024-01-26T20:49:02.234Z,2.88
2024-01-26T20:51:29.834Z,3.40
2024-01-26T20:53:56.843Z,3.08
2024-01-26T20:56:23.821Z,2.42
2024-01-26T20:58:50.934Z,2.47
2024-01-26T21:01:18.256Z,2.70
2024-01-26T21:03:47.276Z,2.60
2024-01-26T21:06:14.590Z,2.20
2024-01-26T21:08:41.972Z,5.85
2024-01-26T21:11:09.296Z,2.58
2024-01-26T21:13:36.377Z,2.95
2024-01-26T21:16:03.586Z,3.33
2024-01-26T21:18:30.777Z,2.75
2024-01-26T21:20:58.836Z,3.08
2024-01-26T21:23:26.955Z,2.60
2024-01-26T21:25:54.423Z,3.80
2024-01-26T21:28:22.056Z,2.50
2024-01-26T21:30:50.081Z,2.92
2024-01-26T21:33:17.554Z,3.42
2024-01-26T21:35:45.119Z,4.00
2024-01-26T21:38:12.317Z,5.15
2024-01-26T21:40:39.418Z,5.32
2024-01-26T21:43:06.639Z,4.32
2024-01-26T21:45:34.848Z,4.90
2024-01-26T21:48:02.033Z,5.78
2024-01-26T21:50:29.435Z,5.30
2024-01-26T21:52:56.512Z,4.30
2024-01-26T21:55:24.072Z,4.20
2024-01-26T21:57:51.152Z,4.72
2024-01-26T22:00:18.662Z,4.72
2024-01-26T22:02:45.758Z,5.03
2024-01-26T22:05:13.133Z,4.35
2024-01-26T22:07:41.000Z,4.65
2024-01-26T22:10:09.008Z,4.40
2024-01-26T22:12:36.253Z,3.65
2024-01-26T22:15:05.753Z,4.30
2024-01-26T22:17:33.180Z,4.40
2024-01-26T22:20:00.362Z,4.03
2024-01-26T22:22:28.225Z,4.47
2024-01-26T22:24:55.268Z,4.40
2024-01-26T22:27:23.738Z,4.40
2024-01-26T22:29:55.968Z,4.22
2024-01-26T22:32:26.213Z,5.15
2024-01-26T22:34:53.456Z,4.53
2024-01-26T22:37:21.193Z,4.38
2024-01-26T22:39:49.143Z,3.65
2024-01-26T22:42:16.368Z,3.60
2024-01-26T22:44:43.547Z,4.15
2024-01-26T22:47:10.562Z,4.15
2024-01-26T22:49:37.745Z,4.05
2024-01-26T22:52:05.268Z,4.13
2024-01-26T22:54:32.347Z,4.55
2024-01-26T22:56:59.485Z,4.40
2024-01-26T22:59:26.512Z,4.10
2024-01-26T23:01:53.540Z,5.05
2024-01-26T23:04:20.686Z,4.40
2024-01-26T23:06:48.747Z,4.28
2024-01-26T23:09:16.574Z,3.92
2024-01-26T23:11:44.084Z,4.07
2024-01-26T23:14:11.143Z,4.68
2024-01-26T23:16:38.180Z,4.20
2024-01-26T23:19:05.598Z,3.92
2024-01-26T23:21:33.938Z,4.28
2024-01-26T23:24:01.102Z,4.05
2024-01-26T23:26:28.480Z,4.00
2024-01-26T23:28:55.487Z,4.45
2024-01-26T23:31:22.541Z,4.22
2024-01-26T23:33:49.579Z,3.80
2024-01-26T23:36:17.660Z,4.68
2024-01-26T23:38:44.894Z,4.35
2024-01-26T23:41:12.757Z,3.45
2024-01-26T23:43:40.848Z,3.67
2024-01-26T23:46:08.074Z,3.83
2024-01-26T23:48:35.259Z,3.70
2024-01-26T23:51:05.644Z,4.32
2024-01-26T23:53:32.661Z,3.95
2024-01-26T23:55:59.649Z,3.75
2024-01-26T23:58:26.533Z,4.43
